Seaton, Texas
Current Conditions -  °F | °C
As of 6:55 AM on Friday 19 Dec 2014 (Local Time) from KTPL Reporting Station
Overcast Overcast  
Wind Chill: 41°   Ceiling: 6000
Heat Index: 46°   Visibility: 6mi
Dew Point: 43°   Wind: 10mph
Humidity: 87%   Direction: 350°N
Pressure: 30.14"   Gusts: 18mph
Location:  31.0795°N, 97.3287°W
Report Text: KTPL 191255Z AUTO 35009G16KT 6SM SCT006 SCT015 OVC060 08/06 A3014 RMK AO1 P0009
Loading
Personal Weather Stations






























Interactive Weather Map New forecast layout! Learn more

10-Day Weather Forecast

Advertisements
Track Severe Weather on mobile